sensor_id;sensor_type;location;lat;lon;timestamp;pressure;altitude;pressure_sealevel;temperature;humidity
64862;BME280;62652;42.274;-71.436;2023-04-10T00:30:01;102350.0;;;8.222222222222221;40.2
64862;BME280;62652;42.274;-71.436;2023-04-10T00:31:00;102360.0;;;8.277777777777779;40.4
64862;BME280;62652;42.274;-71.436;2023-04-10T00:32:01;102360.0;;;8.277777777777779;40.3
64862;BME280;62652;42.274;-71.436;2023-04-10T00:33:00;102360.0;;;8.222222222222221;40.3
64862;BME280;62652;42.274;-71.436;2023-04-10T00:34:00;102360.0;;;8.277777777777779;40.3
64862;BME280;62652;42.274;-71.436;2023-04-10T00:35:01;102370.0;;;8.277777777777779;40.5
64862;BME280;62652;42.274;-71.436;2023-04-10T00:36:00;102360.0;;;8.222222222222221;40.4
64862;BME280;62652;42.274;-71.436;2023-04-10T00:37:01;102370.0;;;8.277777777777779;40.4
64862;BME280;62652;42.274;-71.436;2023-04-10T00:38:00;102360.0;;;8.222222222222221;40.6
64862;BME280;62652;42.274;-71.436;2023-04-10T00:39:01;102370.0;;;8.222222222222221;40.5
64862;BME280;62652;42.274;-71.436;2023-04-10T00:40:01;102370.0;;;8.222222222222221;40.3
64862;BME280;62652;42.274;-71.436;2023-04-10T00:41:01;102370.0;;;8.222222222222221;40.4
64862;BME280;62652;42.274;-71.436;2023-04-10T00:42:01;102370.0;;;8.222222222222221;40.4
64862;BME280;62652;42.274;-71.436;2023-04-10T00:43:00;102370.0;;;8.11111111111111;40.6
64862;BME280;62652;42.274;-71.436;2023-04-10T00:44:01;102370.0;;;8.11111111111111;40.8
64862;BME280;62652;42.274;-71.436;2023-04-10T00:45:01;102370.0;;;8.11111111111111;40.7
64862;BME280;62652;42.274;-71.436;2023-04-10T00:46:01;102370.0;;;8.11111111111111;40.7
64862;BME280;62652;42.274;-71.436;2023-04-10T00:47:01;102380.0;;;8.0;40.8
64862;BME280;62652;42.274;-71.436;2023-04-10T00:48:02;102380.0;;;7.777777777777778;41.3
64862;BME280;62652;42.274;-71.436;2023-04-10T00:49:01;102380.0;;;7.777777777777778;41.4
64862;BME280;62652;42.274;-71.436;2023-04-10T00:50:01;102380.0;;;7.722222222222222;41.5
64862;BME280;62652;42.274;-71.436;2023-04-10T00:51:01;102380.0;;;7.722222222222222;41.7
64862;BME280;62652;42.274;-71.436;2023-04-10T00:52:01;102380.0;;;7.722222222222222;41.8
64862;BME280;62652;42.274;-71.436;2023-04-10T00:53:02;102390.0;;;7.6111111111111125;41.8
64862;BME280;62652;42.274;-71.436;2023-04-10T00:54:01;102380.0;;;7.6111111111111125;42.1
64862;BME280;62652;42.274;-71.436;2023-04-10T00:55:01;102390.0;;;7.5;42.3
64862;BME280;62652;42.274;-71.436;2023-04-10T00:56:01;102390.0;;;7.5;42.5
64862;BME280;62652;42.274;-71.436;2023-04-10T00:57:01;102390.0;;;7.6111111111111125;42.5
64862;BME280;62652;42.274;-71.436;2023-04-10T00:58:01;102390.0;;;7.6111111111111125;42.7
64862;BME280;62652;42.274;-71.436;2023-04-10T00:59:01;102390.0;;;7.6111111111111125;42.6
64862;BME280;62652;42.274;-71.436;2023-04-10T01:00:01;102400.0;;;7.3888888888888875;42.9
64862;BME280;62652;42.274;-71.436;2023-04-10T01:01:01;102390.0;;;7.3888888888888875;43.1
64862;BME280;62652;42.274;-71.436;2023-04-10T01:02:01;102400.0;;;7.3888888888888875;43.2
64862;BME280;62652;42.274;-71.436;2023-04-10T01:03:01;102400.0;;;7.5;43.2
64862;BME280;62652;42.274;-71.436;2023-04-10T01:04:01;102400.0;;;7.5;43.1
64862;BME280;62652;42.274;-71.436;2023-04-10T01:05:01;102400.0;;;7.6111111111111125;43.2
64862;BME280;62652;42.274;-71.436;2023-04-10T01:06:07;102400.0;;;7.5;43.3
64862;BME280;62652;42.274;-71.436;2023-04-10T01:07:06;102409.99999999999;;;7.5;43.2
64862;BME280;62652;42.274;-71.436;2023-04-10T01:08:07;102400.0;;;7.5;43.2
64862;BME280;62652;42.274;-71.436;2023-04-10T01:09:11;102409.99999999999;;;7.5;43.5
64862;BME280;62652;42.274;-71.436;2023-04-10T01:10:05;102409.99999999999;;;7.5;43.3
64862;BME280;62652;42.274;-71.436;2023-04-10T01:11:09;102409.99999999999;;;7.3888888888888875;43.4
64862;BME280;62652;42.274;-71.436;2023-04-10T01:12:07;102409.99999999999;;;7.3888888888888875;43.6
64862;BME280;62652;42.274;-71.436;2023-04-10T01:13:07;102409.99999999999;;;7.3888888888888875;43.5
64862;BME280;62652;42.274;-71.436;2023-04-10T01:14:05;102409.99999999999;;;7.3888888888888875;43.7
64862;BME280;62652;42.274;-71.436;2023-04-10T01:15:05;102420.0;;;7.277777777777778;43.8
64862;BME280;62652;42.274;-71.436;2023-04-10T01:16:04;102409.99999999999;;;7.277777777777778;44.0
64862;BME280;62652;42.274;-71.436;2023-04-10T01:17:05;102409.99999999999;;;7.277777777777778;44.1
64862;BME280;62652;42.274;-71.436;2023-04-10T01:18:04;102409.99999999999;;;7.277777777777778;44.2
64862;BME280;62652;42.274;-71.436;2023-04-10T01:19:06;102409.99999999999;;;7.222222222222222;44.2
64862;BME280;62652;42.274;-71.436;2023-04-10T01:20:06;102420.0;;;7.222222222222222;44.4
64862;BME280;62652;42.274;-71.436;2023-04-10T01:21:01;102420.0;;;7.222222222222222;44.5
64862;BME280;62652;42.274;-71.436;2023-04-10T01:22:01;102420.0;;;7.222222222222222;44.6
64862;BME280;62652;42.274;-71.436;2023-04-10T01:23:12;102420.0;;;7.222222222222222;44.6
64862;BME280;62652;42.274;-71.436;2023-04-10T01:24:11;102420.0;;;7.277777777777778;44.5
64862;BME280;62652;42.274;-71.436;2023-04-10T01:25:11;102420.0;;;7.222222222222222;44.5
64862;BME280;62652;42.274;-71.436;2023-04-10T01:26:03;102420.0;;;7.11111111111111;44.7
64862;BME280;62652;42.274;-71.436;2023-04-10T01:27:11;102420.0;;;7.11111111111111;44.8
64862;BME280;62652;42.274;-71.436;2023-04-10T01:28:17;102420.0;;;7.11111111111111;45.1
64862;BME280;62652;42.274;-71.436;2023-04-10T01:29:03;102420.0;;;7.11111111111111;45.0
64862;BME280;62652;42.274;-71.436;2023-04-10T01:30:02;102420.0;;;7.11111111111111;44.9
64862;BME280;62652;42.274;-71.436;2023-04-10T01:31:01;102430.0;;;7.11111111111111;45.0
64862;BME280;62652;42.274;-71.436;2023-04-10T01:32:04;102420.0;;;7.000000000000001;45.2
64862;BME280;62652;42.274;-71.436;2023-04-10T01:33:02;102430.0;;;7.000000000000001;45.3
64862;BME280;62652;42.274;-71.436;2023-04-10T01:34:06;102430.0;;;6.888888888888888;45.3
64862;BME280;62652;42.274;-71.436;2023-04-10T01:35:05;102430.0;;;6.888888888888888;45.7
64862;BME280;62652;42.274;-71.436;2023-04-10T01:36:03;102430.0;;;6.888888888888888;45.5
64862;BME280;62652;42.274;-71.436;2023-04-10T01:37:03;102430.0;;;6.888888888888888;45.7
64862;BME280;62652;42.274;-71.436;2023-04-10T01:38:04;102430.0;;;6.888888888888888;45.7
64862;BME280;62652;42.274;-71.436;2023-04-10T01:39:01;102430.0;;;6.888888888888888;45.8
64862;BME280;62652;42.274;-71.436;2023-04-10T01:40:04;102430.0;;;6.888888888888888;45.8
64862;BME280;62652;42.274;-71.436;2023-04-10T01:41:01;102430.0;;;6.7777777777777795;45.7
64862;BME280;62652;42.274;-71.436;2023-04-10T01:42:02;102420.0;;;6.7777777777777795;45.9
64862;BME280;62652;42.274;-71.436;2023-04-10T01:43:05;102430.0;;;6.7777777777777795;46.0
64862;BME280;62652;42.274;-71.436;2023-04-10T01:44:02;102430.0;;;6.7777777777777795;46.2
64862;BME280;62652;42.274;-71.436;2023-04-10T01:45:02;102430.0;;;6.722222222222223;46.2
64862;BME280;62652;42.274;-71.436;2023-04-10T01:46:02;102430.0;;;6.722222222222223;46.2
64862;BME280;62652;42.274;-71.436;2023-04-10T01:47:01;102430.0;;;6.722222222222223;46.3
64862;BME280;62652;42.274;-71.436;2023-04-10T01:48:01;102430.0;;;6.722222222222223;46.2
64862;BME280;62652;42.274;-71.436;2023-04-10T01:49:01;102430.0;;;6.500000000000002;46.5
64862;BME280;62652;42.274;-71.436;2023-04-10T01:50:02;102430.0;;;6.611111111111111;46.6
64862;BME280;62652;42.274;-71.436;2023-04-10T01:51:03;102430.0;;;6.611111111111111;46.6
64862;BME280;62652;42.274;-71.436;2023-04-10T01:52:01;102430.0;;;6.611111111111111;46.8
64862;BME280;62652;42.274;-71.436;2023-04-10T01:53:02;102430.0;;;6.611111111111111;46.8
64862;BME280;62652;42.274;-71.436;2023-04-10T01:54:01;102430.0;;;6.611111111111111;46.8
64862;BME280;62652;42.274;-71.436;2023-04-10T01:55:01;102430.0;;;6.611111111111111;47.0
64862;BME280;62652;42.274;-71.436;2023-04-10T01:56:01;102430.0;;;6.611111111111111;46.9
64862;BME280;62652;42.274;-71.436;2023-04-10T01:57:01;102430.0;;;6.500000000000002;47.1
64862;BME280;62652;42.274;-71.436;2023-04-10T01:58:02;102430.0;;;6.388888888888889;47.3
64862;BME280;62652;42.274;-71.436;2023-04-10T01:59:01;102430.0;;;6.277777777777776;47.6
64862;BME280;62652;42.274;-71.436;2023-04-10T02:00:01;102430.0;;;6.277777777777776;47.6
64862;BME280;62652;42.274;-71.436;2023-04-10T02:01:00;102430.0;;;6.388888888888889;47.5
64862;BME280;62652;42.274;-71.436;2023-04-10T02:02:01;102430.0;;;6.388888888888889;47.5
64862;BME280;62652;42.274;-71.436;2023-04-10T02:03:01;102430.0;;;6.388888888888889;47.6
64862;BME280;62652;42.274;-71.436;2023-04-10T02:04:01;102430.0;;;6.277777777777776;47.6
64862;BME280;62652;42.274;-71.436;2023-04-10T02:05:01;102430.0;;;6.277777777777776;48.0
64862;BME280;62652;42.274;-71.436;2023-04-10T02:06:09;102430.0;;;6.277777777777776;48.0
64862;BME280;62652;42.274;-71.436;2023-04-10T02:07:02;102430.0;;;6.277777777777776;48.1
64862;BME280;62652;42.274;-71.436;2023-04-10T02:08:05;102430.0;;;6.277777777777776;48.0
64862;BME280;62652;42.274;-71.436;2023-04-10T02:09:06;102430.0;;;6.277777777777776;48.0
64862;BME280;62652;42.274;-71.436;2023-04-10T02:10:10;102440.00000000001;;;6.277777777777776;48.2
64862;BME280;62652;42.274;-71.436;2023-04-10T02:11:09;102440.00000000001;;;6.277777777777776;48.2
64862;BME280;62652;42.274;-71.436;2023-04-10T02:12:04;102430.0;;;6.222222222222224;48.1
64862;BME280;62652;42.274;-71.436;2023-04-10T02:13:05;102430.0;;;6.277777777777776;48.1
64862;BME280;62652;42.274;-71.436;2023-04-10T02:14:03;102430.0;;;6.277777777777776;48.1
64862;BME280;62652;42.274;-71.436;2023-04-10T02:15:03;102430.0;;;6.222222222222224;48.4
64862;BME280;62652;42.274;-71.436;2023-04-10T02:16:03;102430.0;;;6.222222222222224;48.4
64862;BME280;62652;42.274;-71.436;2023-04-10T02:17:01;102430.0;;;6.111111111111111;48.6
64862;BME280;62652;42.274;-71.436;2023-04-10T02:18:02;102440.00000000001;;;6.222222222222224;48.6
64862;BME280;62652;42.274;-71.436;2023-04-10T02:19:01;102430.0;;;6.222222222222224;48.5
64862;BME280;62652;42.274;-71.436;2023-04-10T02:20:02;102440.00000000001;;;6.111111111111111;48.7
64862;BME280;62652;42.274;-71.436;2023-04-10T02:21:01;102440.00000000001;;;6.222222222222224;48.5
64862;BME280;62652;42.274;-71.436;2023-04-10T02:22:03;102440.00000000001;;;6.111111111111111;48.8
64862;BME280;62652;42.274;-71.436;2023-04-10T02:23:01;102430.0;;;6.111111111111111;48.3
64862;BME280;62652;42.274;-71.436;2023-04-10T02:24:01;102440.00000000001;;;6.111111111111111;48.5
64862;BME280;62652;42.274;-71.436;2023-04-10T02:25:03;102440.00000000001;;;6.111111111111111;48.7
64862;BME280;62652;42.274;-71.436;2023-04-10T02:26:05;102440.00000000001;;;6.111111111111111;48.9
64862;BME280;62652;42.274;-71.436;2023-04-10T02:27:00;102440.00000000001;;;6.111111111111111;48.8
64862;BME280;62652;42.274;-71.436;2023-04-10T02:28:03;102430.0;;;6.111111111111111;49.0
64862;BME280;62652;42.274;-71.436;2023-04-10T02:29:00;102430.0;;;6.111111111111111;48.9
64862;BME280;62652;42.274;-71.436;2023-04-10T02:30:02;102430.0;;;6.111111111111111;49.0
64862;BME280;62652;42.274;-71.436;2023-04-10T02:31:01;102430.0;;;6.111111111111111;49.1
64862;BME280;62652;42.274;-71.436;2023-04-10T02:32:01;102430.0;;;6.111111111111111;49.0
64862;BME280;62652;42.274;-71.436;2023-04-10T02:33:01;102430.0;;;6.111111111111111;49.6
64862;BME280;62652;42.274;-71.436;2023-04-10T02:34:00;102430.0;;;6.111111111111111;49.7
64862;BME280;62652;42.274;-71.436;2023-04-10T02:35:01;102430.0;;;6.222222222222224;50.2
64862;BME280;62652;42.274;-71.436;2023-04-10T02:36:01;102430.0;;;6.222222222222224;49.1
64862;BME280;62652;42.274;-71.436;2023-04-10T02:37:00;102430.0;;;6.222222222222224;49.3
64862;BME280;62652;42.274;-71.436;2023-04-10T02:38:00;102430.0;;;6.222222222222224;49.3
64862;BME280;62652;42.274;-71.436;2023-04-10T02:39:01;102430.0;;;6.277777777777776;49.6
64862;BME280;62652;42.274;-71.436;2023-04-10T02:40:01;102430.0;;;6.277777777777776;49.7
64862;BME280;62652;42.274;-71.436;2023-04-10T02:41:01;102430.0;;;6.388888888888889;48.6
64862;BME280;62652;42.274;-71.436;2023-04-10T02:42:01;102420.0;;;6.277777777777776;48.5
64862;BME280;62652;42.274;-71.436;2023-04-10T02:43:00;102430.0;;;6.277777777777776;48.4
64862;BME280;62652;42.274;-71.436;2023-04-10T02:44:01;102430.0;;;6.277777777777776;48.3
64862;BME280;62652;42.274;-71.436;2023-04-10T02:45:00;102420.0;;;6.277777777777776;48.4
64862;BME280;62652;42.274;-71.436;2023-04-10T02:46:00;102430.0;;;6.277777777777776;48.6
64862;BME280;62652;42.274;-71.436;2023-04-10T02:47:01;102420.0;;;6.277777777777776;48.6
64862;BME280;62652;42.274;-71.436;2023-04-10T02:48:01;102420.0;;;6.277777777777776;48.5
64862;BME280;62652;42.274;-71.436;2023-04-10T02:49:00;102420.0;;;6.277777777777776;48.5
64862;BME280;62652;42.274;-71.436;2023-04-10T02:50:01;102420.0;;;6.111111111111111;48.6
64862;BME280;62652;42.274;-71.436;2023-04-10T02:51:00;102420.0;;;6.222222222222224;48.8
64862;BME280;62652;42.274;-71.436;2023-04-10T02:52:01;102420.0;;;6.111111111111111;48.8
64862;BME280;62652;42.274;-71.436;2023-04-10T02:53:01;102420.0;;;6.111111111111111;49.0
64862;BME280;62652;42.274;-71.436;2023-04-10T02:54:00;102420.0;;;6.111111111111111;48.9
64862;BME280;62652;42.274;-71.436;2023-04-10T02:55:01;102420.0;;;5.888888888888889;49.2
64862;BME280;62652;42.274;-71.436;2023-04-10T02:56:00;102420.0;;;5.888888888888889;49.5
64862;BME280;62652;42.274;-71.436;2023-04-10T02:57:01;102409.99999999999;;;5.888888888888889;49.6
64862;BME280;62652;42.274;-71.436;2023-04-10T02:58:01;102409.99999999999;;;5.888888888888889;49.6
64862;BME280;62652;42.274;-71.436;2023-04-10T02:59:01;102420.0;;;5.888888888888889;49.7
64862;BME280;62652;42.274;-71.436;2023-04-10T03:00:01;102420.0;;;5.888888888888889;49.9
64862;BME280;62652;42.274;-71.436;2023-04-10T03:01:01;102420.0;;;5.888888888888889;49.7
64862;BME280;62652;42.274;-71.436;2023-04-10T03:02:01;102420.0;;;5.888888888888889;49.7
64862;BME280;62652;42.274;-71.436;2023-04-10T03:03:01;102420.0;;;5.777777777777777;50.1
64862;BME280;62652;42.274;-71.436;2023-04-10T03:04:01;102420.0;;;5.777777777777777;50.1
64862;BME280;62652;42.274;-71.436;2023-04-10T03:05:01;102420.0;;;5.777777777777777;50.0
64862;BME280;62652;42.274;-71.436;2023-04-10T03:06:01;102420.0;;;5.888888888888889;49.9
64862;BME280;62652;42.274;-71.436;2023-04-10T03:07:01;102420.0;;;5.777777777777777;50.2
64862;BME280;62652;42.274;-71.436;2023-04-10T03:08:01;102420.0;;;5.777777777777777;50.3
64862;BME280;62652;42.274;-71.436;2023-04-10T03:09:00;102420.0;;;5.777777777777777;50.4
64862;BME280;62652;42.274;-71.436;2023-04-10T03:10:01;102420.0;;;5.777777777777777;50.5
64862;BME280;62652;42.274;-71.436;2023-04-10T03:11:01;102409.99999999999;;;5.777777777777777;50.7
64862;BME280;62652;42.274;-71.436;2023-04-10T03:12:00;102420.0;;;5.7222222222222205;50.8
64862;BME280;62652;42.274;-71.436;2023-04-10T03:13:01;102409.99999999999;;;5.7222222222222205;50.8
64862;BME280;62652;42.274;-71.436;2023-04-10T03:14:01;102409.99999999999;;;5.7222222222222205;50.9
64862;BME280;62652;42.274;-71.436;2023-04-10T03:15:01;102409.99999999999;;;5.7222222222222205;51.0
64862;BME280;62652;42.274;-71.436;2023-04-10T03:16:01;102409.99999999999;;;5.611111111111112;51.3
64862;BME280;62652;42.274;-71.436;2023-04-10T03:17:01;102409.99999999999;;;5.7222222222222205;51.2
64862;BME280;62652;42.274;-71.436;2023-04-10T03:18:01;102409.99999999999;;;5.7222222222222205;51.2
64862;BME280;62652;42.274;-71.436;2023-04-10T03:19:01;102400.0;;;5.7222222222222205;51.3
64862;BME280;62652;42.274;-71.436;2023-04-10T03:20:01;102400.0;;;5.611111111111112;51.4
64862;BME280;62652;42.274;-71.436;2023-04-10T03:21:01;102409.99999999999;;;5.499999999999999;51.8
64862;BME280;62652;42.274;-71.436;2023-04-10T03:22:01;102409.99999999999;;;5.499999999999999;52.0
64862;BME280;62652;42.274;-71.436;2023-04-10T03:23:00;102400.0;;;5.611111111111112;51.9
64862;BME280;62652;42.274;-71.436;2023-04-10T03:24:01;102400.0;;;5.499999999999999;52.1
64862;BME280;62652;42.274;-71.436;2023-04-10T03:25:01;102400.0;;;5.611111111111112;52.0
64862;BME280;62652;42.274;-71.436;2023-04-10T03:26:01;102400.0;;;5.499999999999999;52.2
64862;BME280;62652;42.274;-71.436;2023-04-10T03:27:00;102409.99999999999;;;5.38888888888889;52.5
64862;BME280;62652;42.274;-71.436;2023-04-10T03:28:01;102409.99999999999;;;5.38888888888889;52.4
64862;BME280;62652;42.274;-71.436;2023-04-10T03:29:00;102409.99999999999;;;5.38888888888889;52.9
64862;BME280;62652;42.274;-71.436;2023-04-10T03:30:01;102400.0;;;5.38888888888889;53.0
64862;BME280;62652;42.274;-71.436;2023-04-10T03:31:01;102400.0;;;5.38888888888889;53.4
64862;BME280;62652;42.274;-71.436;2023-04-10T03:32:01;102400.0;;;5.38888888888889;53.7
64862;BME280;62652;42.274;-71.436;2023-04-10T03:33:00;102400.0;;;5.277777777777778;53.3
64862;BME280;62652;42.274;-71.436;2023-04-10T03:34:01;102400.0;;;5.277777777777778;53.3
64862;BME280;62652;42.274;-71.436;2023-04-10T03:35:01;102400.0;;;5.277777777777778;53.4
64862;BME280;62652;42.274;-71.436;2023-04-10T03:36:01;102400.0;;;5.277777777777778;53.5
64862;BME280;62652;42.274;-71.436;2023-04-10T03:37:01;102400.0;;;5.222222222222221;53.9
64862;BME280;62652;42.274;-71.436;2023-04-10T03:38:00;102400.0;;;5.222222222222221;54.2
64862;BME280;62652;42.274;-71.436;2023-04-10T03:39:01;102400.0;;;5.222222222222221;54.3
64862;BME280;62652;42.274;-71.436;2023-04-10T03:40:04;102400.0;;;5.222222222222221;54.2
64862;BME280;62652;42.274;-71.436;2023-04-10T03:41:00;102400.0;;;5.1111111111111125;54.5
64862;BME280;62652;42.274;-71.436;2023-04-10T03:42:00;102390.0;;;5.1111111111111125;54.7
64862;BME280;62652;42.274;-71.436;2023-04-10T03:43:00;102390.0;;;5.1111111111111125;54.8
64862;BME280;62652;42.274;-71.436;2023-04-10T03:44:01;102390.0;;;5.0;54.8
64862;BME280;62652;42.274;-71.436;2023-04-10T03:45:01;102390.0;;;5.0;55.3
64862;BME280;62652;42.274;-71.436;2023-04-10T03:46:01;102390.0;;;5.0;55.4
64862;BME280;62652;42.274;-71.436;2023-04-10T03:47:01;102390.0;;;5.0;55.4
64862;BME280;62652;42.274;-71.436;2023-04-10T03:48:01;102390.0;;;4.8888888888888875;55.5
64862;BME280;62652;42.274;-71.436;2023-04-10T03:49:01;102390.0;;;4.8888888888888875;55.8
64862;BME280;62652;42.274;-71.436;2023-04-10T03:50:01;102390.0;;;4.8888888888888875;56.0
64862;BME280;62652;42.274;-71.436;2023-04-10T03:51:01;102390.0;;;4.8888888888888875;56.3
64862;BME280;62652;42.274;-71.436;2023-04-10T03:52:01;102380.0;;;4.777777777777779;56.4
64862;BME280;62652;42.274;-71.436;2023-04-10T03:53:01;102380.0;;;4.777777777777779;56.6
64862;BME280;62652;42.274;-71.436;2023-04-10T03:54:01;102380.0;;;4.777777777777779;56.8
64862;BME280;62652;42.274;-71.436;2023-04-10T03:55:01;102380.0;;;4.777777777777779;57.0
64862;BME280;62652;42.274;-71.436;2023-04-10T03:56:01;102380.0;;;4.722222222222222;57.2
64862;BME280;62652;42.274;-71.436;2023-04-10T03:57:01;102380.0;;;4.722222222222222;57.4
64862;BME280;62652;42.274;-71.436;2023-04-10T03:58:00;102380.0;;;4.722222222222222;57.6
64862;BME280;62652;42.274;-71.436;2023-04-10T03:59:01;102380.0;;;4.61111111111111;57.8
64862;BME280;62652;42.274;-71.436;2023-04-10T04:00:01;102380.0;;;4.61111111111111;57.9
64862;BME280;62652;42.274;-71.436;2023-04-10T04:01:01;102380.0;;;4.61111111111111;58.0
64862;BME280;62652;42.274;-71.436;2023-04-10T04:02:01;102380.0;;;4.61111111111111;58.1
64862;BME280;62652;42.274;-71.436;2023-04-10T04:03:01;102380.0;;;4.61111111111111;57.9
64862;BME280;62652;42.274;-71.436;2023-04-10T04:04:01;102380.0;;;4.722222222222222;58.0
64862;BME280;62652;42.274;-71.436;2023-04-10T04:05:01;102380.0;;;4.61111111111111;58.0
64862;BME280;62652;42.274;-71.436;2023-04-10T04:06:01;102380.0;;;4.61111111111111;58.0
64862;BME280;62652;42.274;-71.436;2023-04-10T04:07:01;102370.0;;;4.61111111111111;58.3
64862;BME280;62652;42.274;-71.436;2023-04-10T04:08:01;102380.0;;;4.61111111111111;58.5
64862;BME280;62652;42.274;-71.436;2023-04-10T04:09:00;102370.0;;;4.500000000000001;58.7
64862;BME280;62652;42.274;-71.436;2023-04-10T04:10:01;102380.0;;;4.500000000000001;58.8
64862;BME280;62652;42.274;-71.436;2023-04-10T04:11:00;102380.0;;;4.388888888888888;59.1
64862;BME280;62652;42.274;-71.436;2023-04-10T04:12:01;102370.0;;;4.388888888888888;59.3
64862;BME280;62652;42.274;-71.436;2023-04-10T04:13:00;102380.0;;;4.500000000000001;59.1
64862;BME280;62652;42.274;-71.436;2023-04-10T04:14:00;102380.0;;;4.388888888888888;59.3
64862;BME280;62652;42.274;-71.436;2023-04-10T04:15:01;102370.0;;;4.388888888888888;59.5
64862;BME280;62652;42.274;-71.436;2023-04-10T04:16:01;102370.0;;;4.388888888888888;59.5
64862;BME280;62652;42.274;-71.436;2023-04-10T04:17:01;102370.0;;;4.388888888888888;59.9
64862;BME280;62652;42.274;-71.436;2023-04-10T04:18:01;102370.0;;;4.2777777777777795;59.9
64862;BME280;62652;42.274;-71.436;2023-04-10T04:19:01;102370.0;;;4.2777777777777795;60.3
64862;BME280;62652;42.274;-71.436;2023-04-10T04:20:00;102370.0;;;4.222222222222223;60.5
64862;BME280;62652;42.274;-71.436;2023-04-10T04:21:01;102370.0;;;4.222222222222223;60.5
64862;BME280;62652;42.274;-71.436;2023-04-10T04:22:00;102370.0;;;4.222222222222223;60.7
64862;BME280;62652;42.274;-71.436;2023-04-10T04:23:01;102370.0;;;4.222222222222223;61.0
64862;BME280;62652;42.274;-71.436;2023-04-10T04:24:00;102370.0;;;4.222222222222223;61.0
64862;BME280;62652;42.274;-71.436;2023-04-10T04:25:01;102370.0;;;4.111111111111111;61.2
64862;BME280;62652;42.274;-71.436;2023-04-10T04:26:01;102370.0;;;4.111111111111111;61.5
64862;BME280;62652;42.274;-71.436;2023-04-10T04:27:01;102370.0;;;4.111111111111111;61.5
64862;BME280;62652;42.274;-71.436;2023-04-10T04:28:01;102370.0;;;4.000000000000002;61.8
64862;BME280;62652;42.274;-71.436;2023-04-10T04:29:01;102370.0;;;4.111111111111111;61.8
64862;BME280;62652;42.274;-71.436;2023-04-10T04:30:01;102370.0;;;4.000000000000002;61.9
64862;BME280;62652;42.274;-71.436;2023-04-10T04:31:01;102360.0;;;4.000000000000002;62.3
64862;BME280;62652;42.274;-71.436;2023-04-10T04:32:01;102370.0;;;4.000000000000002;62.2
64862;BME280;62652;42.274;-71.436;2023-04-10T04:33:00;102370.0;;;4.000000000000002;62.5
64862;BME280;62652;42.274;-71.436;2023-04-10T04:34:00;102360.0;;;4.000000000000002;62.5
64862;BME280;62652;42.274;-71.436;2023-04-10T04:35:01;102360.0;;;4.000000000000002;62.4
64862;BME280;62652;42.274;-71.436;2023-04-10T04:36:00;102360.0;;;4.000000000000002;62.4
64862;BME280;62652;42.274;-71.436;2023-04-10T04:37:01;102360.0;;;4.000000000000002;62.7
64862;BME280;62652;42.274;-71.436;2023-04-10T04:38:01;102360.0;;;4.000000000000002;62.8
64862;BME280;62652;42.274;-71.436;2023-04-10T04:39:01;102360.0;;;4.000000000000002;62.9
64862;BME280;62652;42.274;-71.436;2023-04-10T04:40:01;102360.0;;;4.000000000000002;63.1
64862;BME280;62652;42.274;-71.436;2023-04-10T04:41:01;102360.0;;;4.000000000000002;63.0
64862;BME280;62652;42.274;-71.436;2023-04-10T04:42:00;102360.0;;;4.000000000000002;63.0
64862;BME280;62652;42.274;-71.436;2023-04-10T04:43:01;102370.0;;;4.000000000000002;63.3
64862;BME280;62652;42.274;-71.436;2023-04-10T04:44:01;102360.0;;;3.888888888888889;63.4
64862;BME280;62652;42.274;-71.436;2023-04-10T04:45:01;102370.0;;;3.888888888888889;63.7
64862;BME280;62652;42.274;-71.436;2023-04-10T04:46:01;102370.0;;;3.7777777777777763;63.9
64862;BME280;62652;42.274;-71.436;2023-04-10T04:47:01;102360.0;;;3.7777777777777763;64.1
64862;BME280;62652;42.274;-71.436;2023-04-10T04:48:01;102370.0;;;3.7777777777777763;64.6
64862;BME280;62652;42.274;-71.436;2023-04-10T04:49:01;102370.0;;;3.7777777777777763;64.4
64862;BME280;62652;42.274;-71.436;2023-04-10T04:50:00;102360.0;;;3.7777777777777763;64.8
64862;BME280;62652;42.274;-71.436;2023-04-10T04:51:01;102360.0;;;3.7777777777777763;64.9
64862;BME280;62652;42.274;-71.436;2023-04-10T04:52:01;102360.0;;;3.7777777777777763;65.0
64862;BME280;62652;42.274;-71.436;2023-04-10T04:53:01;102360.0;;;3.7777777777777763;65.3
64862;BME280;62652;42.274;-71.436;2023-04-10T04:54:01;102370.0;;;3.7777777777777763;65.3
64862;BME280;62652;42.274;-71.436;2023-04-10T04:55:00;102370.0;;;3.7222222222222237;65.4
64862;BME280;62652;42.274;-71.436;2023-04-10T04:56:01;102360.0;;;3.7222222222222237;65.4
64862;BME280;62652;42.274;-71.436;2023-04-10T04:57:01;102370.0;;;3.7222222222222237;65.5
64862;BME280;62652;42.274;-71.436;2023-04-10T04:58:00;102370.0;;;3.611111111111111;65.8